Time;durP1;ratioP1;P1;durP2;ratioP2;P2;SDS_P1;SDS_P2;PMS_P1;PMS_P2;Temp;Humidity;BMP_temperature;BMP_pressure;BME280_temperature;BME280_humidity;BME280_pressure;Samples;Min_cycle;Max_cycle;Signal;HPM_P1;HPM_P2
2022/01/11 00:01:43;;;;;;;22.20;3.13;;;;;;;12.48;89.74;99663.69;5055227;28;20100;-87
2022/01/11 00:04:12;;;;;;;15.15;2.20;;;;;;;12.51;89.85;99661.03;5054329;28;20049;-87
2022/01/11 00:06:44;;;;;;;48.28;23.92;;;;;;;12.57;89.89;99660.97;5053386;28;20121;-87
2022/01/11 00:09:22;;;;;;;39.42;24.65;;;;;;;12.57;89.63;99668.91;5054578;28;20096;-86
2022/01/11 00:11:50;;;;;;;16.13;2.83;;;;;;;12.59;89.23;99663.63;5054633;28;20048;-88
2022/01/11 00:14:18;;;;;;;16.67;2.85;;;;;;;12.57;88.97;99668.03;5054366;28;20678;-88
2022/01/11 00:16:46;;;;;;;13.88;2.38;;;;;;;12.57;88.92;99660.97;5059454;28;20045;-88
2022/01/11 00:19:14;;;;;;;10.15;1.77;;;;;;;12.60;89.03;99666.22;5048896;28;20051;-87
2022/01/11 00:21:47;;;;;;;14.73;3.03;;;;;;;12.58;88.87;99651.25;5054588;28;20056;-85
2022/01/11 00:24:29;;;;;;;15.10;4.15;;;;;;;12.56;88.39;99634.50;5057842;28;20056;-86
2022/01/11 00:26:58;;;;;;;7.28;1.13;;;;;;;12.58;88.63;99627.44;5048520;28;20057;-86
2022/01/11 00:29:27;;;;;;;17.65;3.83;;;;;;;12.56;88.82;99623.91;5037524;28;20057;-86
2022/01/11 00:32:00;;;;;;;11.75;1.88;;;;;;;12.56;89.05;99616.84;5047849;28;20076;-86
2022/01/11 00:34:36;;;;;;;5.18;0.73;;;;;;;12.59;89.00;99634.50;5057779;28;20128;-85
2022/01/11 00:37:04;;;;;;;14.18;3.67;;;;;;;12.60;88.83;99621.22;5053671;28;20575;-86
2022/01/11 00:39:35;;;;;;;17.35;10.05;;;;;;;12.60;88.58;99618.56;5072517;28;20045;-85
2022/01/11 00:42:03;;;;;;;15.15;2.22;;;;;;;12.57;88.54;99620.38;5072292;28;20052;-86
2022/01/11 00:44:31;;;;;;;7.05;1.88;;;;;;;12.52;88.54;99625.75;5070901;28;20896;-86
2022/01/11 00:46:59;;;;;;;4.35;1.17;;;;;;;12.50;88.46;99627.50;5072682;28;20048;-86
2022/01/11 00:49:27;;;;;;;13.02;1.35;;;;;;;12.51;88.44;99645.16;5072471;28;20123;-86
2022/01/11 00:51:55;;;;;;;10.68;1.35;;;;;;;12.51;88.41;99657.50;5073205;28;20040;-86
2022/01/11 00:54:23;;;;;;;16.20;1.40;;;;;;;12.48;88.62;99682.22;5072626;28;20048;-85
2022/01/11 00:56:53;;;;;;;9.48;1.52;;;;;;;12.48;88.66;99684.88;5073675;28;20044;-86
2022/01/11 00:59:21;;;;;;;12.18;1.10;;;;;;;12.43;88.63;99704.34;5071926;28;20040;-85
2022/01/11 01:01:48;;;;;;;6.65;1.00;;;;;;;12.42;88.66;99716.69;5077682;28;20054;-80
2022/01/11 01:04:16;;;;;;;5.00;0.70;;;;;;;12.37;88.79;99723.81;5072591;28;20044;-81
2022/01/11 01:06:45;;;;;;;1.05;0.30;;;;;;;12.23;88.51;99718.63;5071396;28;20079;-80
2022/01/11 01:09:15;;;;;;;0.85;0.13;;;;;;;12.08;88.21;99712.59;5070763;28;20053;-80
2022/01/11 01:11:47;;;;;;;0.22;0.05;;;;;;;11.91;87.68;99724.16;5070046;28;20037;-80
2022/01/11 01:14:17;;;;;;;0.00;0.00;;;;;;;11.73;87.03;99721.59;5070566;28;20110;-80
2022/01/11 01:16:45;;;;;;;0.90;0.22;;;;;;;11.63;87.04;99719.88;5071241;28;20045;-81
2022/01/11 01:19:27;;;;;;;1.45;1.20;;;;;;;11.57;87.15;99718.16;5071520;28;20486;-80
2022/01/11 01:21:57;;;;;;;1.35;0.10;;;;;;;11.55;87.50;99717.28;5074390;28;20726;-78
2022/01/11 01:24:24;;;;;;;1.55;0.10;;;;;;;11.51;87.88;99720.84;5069048;28;20040;-78
2022/01/11 01:26:52;;;;;;;0.95;0.15;;;;;;;11.48;88.13;99709.41;5070364;28;20040;-77
2022/01/11 01:29:21;;;;;;;4.93;0.28;;;;;;;11.46;88.40;99684.75;5070238;28;20045;-77
2022/01/11 01:31:49;;;;;;;2.55;0.25;;;;;;;11.47;88.69;99675.94;5068674;28;20124;-77
2022/01/11 01:34:17;;;;;;;4.90;0.40;;;;;;;11.51;88.93;99675.03;5070136;28;20075;-77
2022/01/11 01:36:45;;;;;;;7.30;0.70;;;;;;;11.52;89.40;99682.94;5075566;28;20442;-77
2022/01/11 01:39:12;;;;;;;8.70;0.50;;;;;;;11.55;89.78;99671.50;5053938;28;20036;-77
2022/01/11 01:41:43;;;;;;;4.72;0.50;;;;;;;11.57;90.11;99677.63;5068909;28;20435;-78
2022/01/11 01:44:12;;;;;;;7.43;1.60;;;;;;;11.61;90.37;99684.66;5076093;28;20717;-77
2022/01/11 01:46:42;;;;;;;4.38;0.65;;;;;;;11.64;90.59;99682.00;5070676;28;20037;-77
2022/01/11 01:49:15;;;;;;;9.98;1.08;;;;;;;11.65;90.80;99665.25;5070411;28;20049;-78
2022/01/11 01:51:43;;;;;;;2.30;0.60;;;;;;;11.68;91.05;99669.66;5071008;28;20471;-78
2022/01/11 01:54:11;;;;;;;1.92;0.63;;;;;;;11.67;91.24;99659.97;5073719;28;20445;-80
2022/01/11 01:56:39;;;;;;;6.10;0.90;;;;;;;11.67;91.34;99652.03;5068482;28;20500;-79
2022/01/11 01:59:08;;;;;;;5.15;0.57;;;;;;;11.65;91.33;99659.97;5069777;28;20546;-80
2022/01/11 02:01:43;;;;;;;10.60;0.60;;;;;;;11.61;91.30;99641.50;5054134;28;20047;-81
2022/01/11 02:04:13;;;;;;;7.65;0.65;;;;;;;11.58;91.14;99661.78;5077730;28;20043;-79
2022/01/11 02:06:40;;;;;;;9.18;0.93;;;;;;;11.54;91.00;99660.03;5070830;28;20127;-81
2022/01/11 02:09:08;;;;;;;13.25;1.17;;;;;;;11.54;90.88;99667.09;5070756;28;20446;-81
2022/01/11 02:11:37;;;;;;;13.32;0.98;;;;;;;11.55;90.74;99671.50;5070674;28;20090;-81
2022/01/11 02:14:04;;;;;;;11.30;5.88;;;;;;;11.59;90.54;99679.38;5070830;28;20044;-82
2022/01/11 02:16:32;;;;;;;7.63;0.88;;;;;;;11.61;90.58;99676.75;5070500;28;20040;-82
2022/01/11 02:19:00;;;;;;;17.75;11.07;;;;;;;11.66;90.43;99672.28;5070817;28;20044;-81
2022/01/11 02:21:29;;;;;;;7.10;1.02;;;;;;;11.69;90.51;99672.25;5058856;28;20128;-81
2022/01/11 02:23:59;;;;;;;9.65;2.05;;;;;;;11.70;90.56;99667.84;5070768;28;20128;-82
2022/01/11 02:26:30;;;;;;;9.82;2.38;;;;;;;11.74;90.53;99665.25;5070844;28;20488;-82
2022/01/11 02:28:57;;;;;;;13.57;4.35;;;;;;;11.76;90.55;99666.06;5070579;28;22076;-81
2022/01/11 02:31:25;;;;;;;10.52;1.42;;;;;;;11.74;90.69;99664.34;5070888;28;20047;-82
2022/01/11 02:33:59;;;;;;;31.98;15.30;;;;;;;11.80;90.65;99665.19;5080497;28;20094;-83
2022/01/11 02:36:32;;;;;;;16.02;3.72;;;;;;;11.84;90.63;99655.44;5071641;28;20051;-83
2022/01/11 02:39:13;;;;;;;10.73;2.27;;;;;;;11.83;90.68;99662.50;5070318;28;20044;-82
2022/01/11 02:41:50;;;;;;;12.57;3.88;;;;;;;11.82;90.67;99646.66;5070530;28;20042;-82
2022/01/11 02:44:22;;;;;;;6.63;0.93;;;;;;;11.82;90.68;99657.22;5070279;28;20055;-81
2022/01/11 02:46:50;;;;;;;4.93;0.70;;;;;;;11.81;90.78;99656.38;5070239;28;20497;-80
2022/01/11 02:49:18;;;;;;;5.00;0.75;;;;;;;11.76;90.63;99652.84;5050005;28;20466;-80
2022/01/11 02:51:52;;;;;;;6.35;0.93;;;;;;;11.76;90.41;99654.63;5050119;28;20524;-80
2022/01/11 02:54:20;;;;;;;5.05;0.70;;;;;;;11.69;90.29;99640.53;5064937;28;20493;-81
2022/01/11 02:56:52;;;;;;;7.43;1.08;;;;;;;11.71;90.18;99636.13;5059306;28;20043;-82
2022/01/11 02:59:20;;;;;;;15.15;4.00;;;;;;;11.72;90.02;99634.38;5070517;28;20446;-81
2022/01/11 03:01:47;;;;;;;16.27;6.43;;;;;;;11.70;89.84;99630.84;5071287;28;20040;-83
2022/01/11 03:04:16;;;;;;;13.43;4.45;;;;;;;11.73;89.91;99638.78;5067657;28;20074;-81
2022/01/11 03:06:45;;;;;;;20.63;10.32;;;;;;;11.72;89.96;99644.94;5070838;28;20110;-81
2022/01/11 03:09:14;;;;;;;5.78;0.88;;;;;;;11.70;89.91;99638.78;5087140;28;20070;-82
2022/01/11 03:11:42;;;;;;;6.07;0.82;;;;;;;11.67;90.03;99642.34;5070601;28;20125;-81
2022/01/11 03:14:10;;;;;;;4.82;0.40;;;;;;;11.69;90.12;99644.94;5071936;28;20040;-82
2022/01/11 03:16:37;;;;;;;5.75;0.57;;;;;;;11.69;90.27;99637.91;5074576;28;20091;-81
2022/01/11 03:19:05;;;;;;;2.90;0.55;;;;;;;11.67;90.26;99626.47;5075781;28;20049;-81
2022/01/11 03:21:33;;;;;;;9.68;0.90;;;;;;;11.66;90.38;99637.06;5073732;28;20090;-79
2022/01/11 03:24:01;;;;;;;4.97;0.70;;;;;;;11.66;90.49;99645.88;5072015;28;20123;-78
2022/01/11 03:26:30;;;;;;;8.18;1.13;;;;;;;11.68;90.68;99640.56;5072607;28;20385;-80
2022/01/11 03:28:57;;;;;;;3.42;0.82;;;;;;;11.66;90.75;99642.34;5072780;28;20048;-79
2022/01/11 03:31:25;;;;;;;7.18;0.60;;;;;;;11.65;90.86;99652.03;5074205;28;20094;-81
2022/01/11 03:33:52;;;;;;;6.50;0.90;;;;;;;11.65;90.91;99649.38;5077763;28;20117;-81
2022/01/11 03:36:20;;;;;;;5.47;0.50;;;;;;;11.62;91.07;99641.47;5073793;28;20060;-82
2022/01/11 03:38:50;;;;;;;6.90;0.90;;;;;;;11.59;90.99;99647.66;5070978;28;20090;-82
2022/01/11 03:41:17;;;;;;;6.75;0.55;;;;;;;11.59;90.99;99633.56;5074615;28;20056;-81
2022/01/11 03:43:47;;;;;;;3.08;0.75;;;;;;;11.56;90.95;99645.03;5075186;28;20484;-81
2022/01/11 03:46:19;;;;;;;;;;;;;;;11.54;90.96;99660.03;5073551;28;20066;-78
2022/01/11 03:48:47;;;;;;;7.90;0.73;;;;;;;11.51;91.01;99664.47;5072145;28;19926;-79
2022/01/11 03:51:15;;;;;;;5.10;0.38;;;;;;;11.53;91.17;99670.63;5073057;28;20045;-80
2022/01/11 03:53:57;;;;;;;4.32;0.45;;;;;;;11.57;91.17;99672.34;5072957;28;20045;-81
2022/01/11 03:56:28;;;;;;;7.60;0.70;;;;;;;11.61;91.42;99666.16;5074067;28;20036;-82
2022/01/11 03:59:14;;;;;;;6.20;0.60;;;;;;;11.66;91.32;99661.72;5073047;28;20043;-82
2022/01/11 04:01:43;;;;;;;2.38;0.35;;;;;;;11.61;91.30;99670.56;5073309;28;20047;-80
2022/01/11 04:04:11;;;;;;;2.75;0.32;;;;;;;11.61;91.26;99662.66;5072196;28;20066;-81
2022/01/11 04:06:40;;;;;;;5.13;0.70;;;;;;;11.59;91.15;99665.28;5071026;28;20032;-78
2022/01/11 04:09:09;;;;;;;11.02;0.77;;;;;;;11.59;91.28;99673.22;5052393;28;20041;-79
2022/01/11 04:11:38;;;;;;;7.88;0.88;;;;;;;11.61;91.28;99683.78;5054774;28;20080;-79
2022/01/11 04:14:06;;;;;;;4.50;0.60;;;;;;;11.63;91.46;99684.63;5073088;28;20056;-80
2022/01/11 04:16:35;;;;;;;6.63;0.85;;;;;;;11.67;91.40;99683.75;5073516;28;20056;-79
2022/01/11 04:19:06;;;;;;;3.53;0.45;;;;;;;11.69;91.51;99688.13;5051799;28;20056;-77
2022/01/11 04:21:34;;;;;;;4.53;0.45;;;;;;;11.72;91.59;99679.31;5070951;28;20041;-78
2022/01/11 04:24:02;;;;;;;12.85;8.23;;;;;;;11.73;91.74;99675.78;5070892;28;20614;-78
2022/01/11 04:26:30;;;;;;;16.35;10.30;;;;;;;11.76;91.69;99662.56;5069734;28;20075;-78
2022/01/11 04:29:03;;;;;;;20.85;11.15;;;;;;;11.79;91.73;99652.84;5065531;28;20049;-77
2022/01/11 04:31:30;;;;;;;4.40;1.30;;;;;;;11.78;91.95;99643.16;5055818;28;20040;-77
2022/01/11 04:34:00;;;;;;;4.28;0.40;;;;;;;11.74;91.99;99640.56;5051135;28;20073;-77
2022/01/11 04:36:30;;;;;;;3.05;0.30;;;;;;;11.67;91.95;99630.88;5064491;28;20052;-77
2022/01/11 04:38:58;;;;;;;3.55;0.60;;;;;;;11.58;91.88;99630.06;5049481;28;20504;-79
2022/01/11 04:41:26;;;;;;;2.78;0.50;;;;;;;11.53;91.67;99646.84;5050158;28;20565;-80
2022/01/11 04:43:54;;;;;;;2.45;0.60;;;;;;;11.52;91.62;99647.72;5051482;28;20069;-80
2022/01/11 04:46:21;;;;;;;3.00;0.43;;;;;;;11.52;91.81;99639.78;5051808;28;20409;-81
2022/01/11 04:48:55;;;;;;;0.95;0.25;;;;;;;11.53;91.65;99649.47;5035997;28;20053;-79
2022/01/11 04:51:25;;;;;;;4.97;0.40;;;;;;;11.53;91.57;99641.53;5053213;28;20049;-80
2022/01/11 04:53:54;;;;;;;2.22;0.32;;;;;;;11.48;91.51;99651.28;5051744;28;20045;-79
2022/01/11 04:56:24;;;;;;;2.35;0.20;;;;;;;11.45;91.24;99654.81;5050830;28;20037;-80
2022/01/11 04:58:52;;;;;;;1.20;0.20;;;;;;;11.45;90.90;99657.44;5067408;28;20059;-80
2022/01/11 05:01:20;;;;;;;2.53;0.17;;;;;;;11.46;90.86;99663.63;5051811;28;20037;-80
2022/01/11 05:03:48;;;;;;;4.15;0.50;;;;;;;11.49;90.67;99679.44;5050260;28;20033;-78
2022/01/11 05:06:16;;;;;;;2.03;0.20;;;;;;;11.50;90.68;99684.72;5033184;28;20128;-78
2022/01/11 05:08:45;;;;;;;3.58;0.43;;;;;;;11.52;90.71;99700.56;5049463;28;20051;-78
2022/01/11 05:11:14;;;;;;;3.05;0.50;;;;;;;11.51;90.94;99704.09;5049575;28;20056;-76
2022/01/11 05:13:41;;;;;;;3.33;0.50;;;;;;;11.46;91.20;99712.06;5049296;28;20144;-76
2022/01/11 05:16:27;;;;;;;7.32;4.60;;;;;;;11.36;91.36;99715.59;5050904;28;20048;-75
2022/01/11 05:18:55;;;;;;;8.95;3.80;;;;;;;11.26;91.49;99736.81;5049666;28;20120;-76
2022/01/11 05:21:23;;;;;;;4.05;1.20;;;;;;;11.16;91.49;99738.59;5049670;28;20495;-77
2022/01/11 05:23:52;;;;;;;2.92;0.60;;;;;;;11.08;91.64;99736.00;5032551;28;20045;-76
2022/01/11 05:26:20;;;;;;;1.42;0.20;;;;;;;10.99;91.44;99745.69;5048590;28;20060;-77
2022/01/11 05:28:49;;;;;;;1.17;0.20;;;;;;;10.89;91.57;99762.44;5048343;28;20515;-78
2022/01/11 05:31:17;;;;;;;1.65;0.30;;;;;;;10.85;91.70;99771.25;5033366;28;20045;-79
2022/01/11 05:33:44;;;;;;;3.85;0.40;;;;;;;10.86;91.60;99760.69;5049629;28;20489;-78
2022/01/11 05:36:12;;;;;;;1.02;0.28;;;;;;;10.84;91.84;99756.28;5049283;28;20048;-79
2022/01/11 05:38:40;;;;;;;3.28;0.60;;;;;;;10.82;91.79;99753.66;5049449;28;20040;-80
2022/01/11 05:41:10;;;;;;;6.97;0.77;;;;;;;10.83;91.69;99755.41;5046834;28;20045;-79
2022/01/11 05:43:39;;;;;;;2.88;0.40;;;;;;;10.83;91.89;99760.69;5050448;28;20045;-80
2022/01/11 05:46:07;;;;;;;2.58;0.30;;;;;;;10.83;91.87;99749.25;5033935;28;20103;-78
2022/01/11 05:48:38;;;;;;;4.00;0.65;;;;;;;10.87;92.15;99754.53;5048611;28;20052;-78
2022/01/11 05:51:06;;;;;;;1.58;0.57;;;;;;;10.88;92.04;99758.94;5043428;28;20498;-80
2022/01/11 05:53:33;;;;;;;1.80;0.20;;;;;;;10.95;92.12;99754.50;5044531;28;20064;-80
2022/01/11 05:56:01;;;;;;;7.75;1.25;;;;;;;11.04;92.27;99759.75;5070783;28;20075;-82
2022/01/11 05:58:31;;;;;;;5.13;2.20;;;;;;;11.09;92.21;99753.56;5069869;28;20079;-81
2022/01/11 06:00:59;;;;;;;17.50;11.93;;;;;;;11.12;92.29;99744.78;5069428;28;20062;-82
2022/01/11 06:03:27;;;;;;;14.85;9.77;;;;;;;11.11;92.25;99753.56;5068984;28;20053;-82
2022/01/11 06:05:55;;;;;;;14.98;9.77;;;;;;;11.05;92.25;99743.91;5069984;28;20048;-81
2022/01/11 06:08:23;;;;;;;7.40;2.72;;;;;;;10.98;92.05;99742.16;5069294;28;20127;-81
2022/01/11 06:10:50;;;;;;;2.47;1.10;;;;;;;10.91;91.77;99718.41;5057388;28;20064;-80
2022/01/11 06:13:21;;;;;;;4.97;0.80;;;;;;;10.88;91.65;99731.66;5049522;28;20045;-81
2022/01/11 06:15:54;;;;;;;4.88;0.73;;;;;;;10.87;91.77;99736.03;5069562;28;20089;-81
2022/01/11 06:18:22;;;;;;;1.40;0.13;;;;;;;10.88;91.74;99726.38;5070794;28;20128;-81
2022/01/11 06:21:19;;;;;;;5.30;0.70;;;;;;;10.88;91.79;99729.88;5052887;28;20049;-82
2022/01/11 06:23:48;;;;;;;1.48;0.38;;;;;;;10.90;91.94;99730.75;5073565;28;20405;-85
2022/01/11 06:26:17;;;;;;;1.88;0.50;;;;;;;10.94;92.11;99711.38;5056180;28;20041;-85
2022/01/11 06:28:45;;;;;;;2.78;0.40;;;;;;;11.00;92.18;99702.56;5085040;28;20036;-85
2022/01/11 06:31:15;;;;;;;9.60;5.32;;;;;;;11.00;92.13;99678.81;5070485;28;20095;-80
2022/01/11 06:33:43;;;;;;;7.82;2.45;;;;;;;11.01;92.04;99668.25;5064123;28;20401;-80
2022/01/11 06:36:15;;;;;;;11.85;4.07;;;;;;;11.06;92.05;99649.72;5032953;28;20091;-78
2022/01/11 06:38:44;;;;;;;4.93;1.50;;;;;;;11.09;92.25;99636.53;5065839;28;20505;-79
2022/01/11 06:41:16;;;;;;;3.97;1.45;;;;;;;11.12;92.32;99632.09;5078535;28;20111;-79
2022/01/11 06:43:45;;;;;;;2.83;1.42;;;;;;;11.10;92.13;99606.56;5050975;28;20041;-81
2022/01/11 06:46:16;;;;;;;1.73;0.85;;;;;;;11.10;91.79;99601.28;5069350;28;20052;-79
2022/01/11 06:48:44;;;;;;;1.98;0.45;;;;;;;11.09;91.35;99618.88;5052808;28;20496;-80
2022/01/11 06:51:12;;;;;;;1.20;0.50;;;;;;;11.17;91.16;99634.69;5083655;28;20040;-81
2022/01/11 06:53:47;;;;;;;0.95;0.60;;;;;;;11.27;90.76;99636.41;5070487;28;20087;-81
2022/01/11 06:56:17;;;;;;;0.52;0.25;;;;;;;11.40;90.41;99616.97;5051595;28;20045;-80
2022/01/11 06:58:45;;;;;;;1.38;0.80;;;;;;;11.69;89.92;99651.09;5052030;28;20041;-82
2022/01/11 07:01:16;;;;;;;0.50;0.28;;;;;;;11.93;89.53;99653.63;5069939;28;20064;-83
2022/01/11 07:03:45;;;;;;;0.10;0.03;;;;;;;12.02;88.66;99676.47;5070351;28;20087;-82
2022/01/11 07:06:36;;;;;;;0.00;0.00;;;;;;;11.98;88.42;99694.13;5071717;28;20045;-82
2022/01/11 07:09:05;;;;;;;0.88;0.60;;;;;;;11.92;88.20;99686.25;5053751;28;20060;-81
2022/01/11 07:11:35;;;;;;;1.38;0.40;;;;;;;11.88;87.83;99705.66;5069700;28;20408;-80
2022/01/11 07:14:04;;;;;;;2.60;1.20;;;;;;;11.89;87.68;99698.59;5071786;28;20115;-80
2022/01/11 07:16:34;;;;;;;1.83;0.85;;;;;;;11.94;87.42;99707.41;5039476;28;20064;-79
2022/01/11 07:19:03;;;;;;;0.32;0.32;;;;;;;12.01;87.06;99705.59;5055690;28;20049;-78
2022/01/11 07:21:30;;;;;;;1.58;0.15;;;;;;;12.00;86.72;99717.94;5048074;28;20493;-77
2022/01/11 07:23:59;;;;;;;2.28;1.35;;;;;;;12.14;86.74;99731.06;5040130;28;20634;-76
2022/01/11 07:26:26;;;;;;;1.15;0.10;;;;;;;12.16;86.87;99732.78;5029974;28;22296;-75
2022/01/11 07:28:54;;;;;;;0.55;0.15;;;;;;;12.16;86.51;99732.78;5058955;28;20048;-75
2022/01/11 07:31:21;;;;;;;2.38;0.20;;;;;;;12.21;86.45;99745.97;5044722;28;20037;-75
2022/01/11 07:33:55;;;;;;;1.40;0.50;;;;;;;12.68;86.74;99743.81;5055648;28;20041;-76
2022/01/11 07:36:25;;;;;;;6.82;0.45;;;;;;;13.20;86.86;99743.28;5076563;28;20381;-76
2022/01/11 07:38:58;;;;;;;2.00;0.70;;;;;;;13.75;87.06;99751.44;5066176;28;20048;-76
2022/01/11 07:41:32;;;;;;;5.73;1.27;;;;;;;14.20;87.43;99757.84;5062481;28;20052;-77
2022/01/11 07:44:19;;;;;;;7.05;2.10;;;;;;;14.68;86.94;99771.28;5059509;28;20334;-77
2022/01/11 07:46:47;;;;;;;5.97;2.55;;;;;;;14.98;86.90;99780.47;5065182;28;20489;-76
2022/01/11 07:49:28;;;;;;;6.18;3.00;;;;;;;15.30;86.29;99778.09;5048599;28;20138;-78
2022/01/11 07:51:56;;;;;;;4.40;3.47;;;;;;;15.57;86.42;99791.78;5063218;28;20040;-79
2022/01/11 07:54:24;;;;;;;12.40;7.45;;;;;;;15.92;86.31;99794.56;5062762;28;20041;-77
2022/01/11 07:56:52;;;;;;;4.85;2.22;;;;;;;16.32;86.13;99795.44;5034694;28;20059;-78
2022/01/11 07:59:20;;;;;;;13.82;6.80;;;;;;;16.52;85.65;99802.97;5058961;28;20452;-78
2022/01/11 08:01:49;;;;;;;7.57;4.57;;;;;;;16.85;85.38;99789.75;5054350;28;20120;-77
2022/01/11 08:04:20;;;;;;;4.40;2.08;;;;;;;16.93;84.95;99798.44;5056367;28;20090;-79
2022/01/11 08:06:54;;;;;;;3.65;1.58;;;;;;;17.15;84.80;99796.94;5067466;28;20044;-79
2022/01/11 08:09:32;;;;;;;6.15;1.95;;;;;;;17.13;84.16;99801.44;5059248;28;20106;-78
2022/01/11 08:12:01;;;;;;;6.40;3.80;;;;;;;16.77;84.23;99808.59;5050078;28;20049;-78
2022/01/11 08:14:29;;;;;;;7.25;2.97;;;;;;;16.61;85.30;99809.88;5049842;28;20049;-78
2022/01/11 08:16:57;;;;;;;10.40;6.50;;;;;;;16.37;85.15;99811.31;5068834;28;20501;-79
2022/01/11 08:19:27;;;;;;;10.63;6.32;;;;;;;16.32;84.05;99805.22;5033394;28;20114;-78
2022/01/11 08:21:58;;;;;;;10.57;6.43;;;;;;;16.29;84.71;99811.47;5054362;28;20059;-78
2022/01/11 08:24:38;;;;;;;10.38;4.90;;;;;;;15.94;84.90;99824.72;5064539;28;20052;-79
2022/01/11 08:27:06;;;;;;;8.32;4.28;;;;;;;15.77;84.98;99818.84;5076218;28;20060;-79
2022/01/11 08:29:35;;;;;;;9.75;5.55;;;;;;;15.79;84.58;99828.56;5049788;28;20044;-77
2022/01/11 08:32:04;;;;;;;5.57;2.90;;;;;;;16.10;85.03;99838.56;5056141;28;20044;-79
2022/01/11 08:34:32;;;;;;;6.40;3.65;;;;;;;16.50;85.17;99843.84;5043250;28;20053;-79
2022/01/11 08:37:02;;;;;;;10.68;2.95;;;;;;;16.27;83.86;99842.63;5047524;28;20076;-78
2022/01/11 08:39:33;;;;;;;7.30;5.03;;;;;;;15.73;83.25;99847.31;5058058;28;20045;-77
2022/01/11 08:42:00;;;;;;;12.77;7.97;;;;;;;15.28;83.64;99858.81;5033714;28;20057;-80
2022/01/11 08:44:28;;;;;;;15.00;8.32;;;;;;;14.83;84.74;99847.19;5062415;28;20044;-81
2022/01/11 08:46:58;;;;;;;18.08;9.07;;;;;;;14.49;86.15;99846.84;5050636;28;20106;-78
2022/01/11 08:49:37;;;;;;;3.60;1.58;;;;;;;14.28;86.94;99855.97;5083362;28;20032;-78
2022/01/11 08:52:07;;;;;;;0.32;0.17;;;;;;;13.86;85.95;99841.47;5067887;28;20056;-77
2022/01/11 08:54:36;;;;;;;0.20;0.00;;;;;;;13.38;86.19;99842.94;5067058;28;20047;-76
2022/01/11 08:57:06;;;;;;;1.20;0.30;;;;;;;13.15;87.03;99840.50;5062292;28;20082;-76
2022/01/11 08:59:34;;;;;;;2.75;1.20;;;;;;;12.96;87.25;99839.78;5061310;28;20060;-75
2022/01/11 09:02:06;;;;;;;8.75;2.40;;;;;;;12.87;87.58;99849.56;5059424;28;20135;-74
2022/01/11 09:04:35;;;;;;;2.33;1.73;;;;;;;12.78;87.25;99846.13;5066666;28;20045;-74
2022/01/11 09:07:18;;;;;;;4.43;1.30;;;;;;;12.61;86.85;99845.34;5057520;28;20056;-74
2022/01/11 09:09:46;;;;;;;4.10;1.80;;;;;;;12.57;87.00;99838.34;5065727;28;20036;-75
2022/01/11 09:12:18;;;;;;;8.55;4.05;;;;;;;12.73;87.36;99839.13;5067929;28;20059;-75
2022/01/11 09:14:49;;;;;;;6.95;4.53;;;;;;;12.92;87.49;99827.47;5054375;28;20044;-76
2022/01/11 09:17:19;;;;;;;12.45;8.75;;;;;;;13.12;87.70;99811.38;5055972;28;20044;-76
2022/01/11 09:19:48;;;;;;;9.32;6.50;;;;;;;13.42;88.24;99821.69;5064631;28;20372;-76
2022/01/11 09:22:21;;;;;;;3.25;2.00;;;;;;;13.77;88.62;99813.31;5050207;28;20066;-76
2022/01/11 09:24:51;;;;;;;3.17;1.13;;;;;;;14.02;89.05;99803.25;5063095;28;20048;-76
2022/01/11 09:27:23;;;;;;;3.92;1.55;;;;;;;14.06;89.36;99796.97;5062400;28;20044;-76
2022/01/11 09:29:51;;;;;;;2.72;0.75;;;;;;;14.04;89.71;99800.56;5066904;28;20040;-77
2022/01/11 09:32:21;;;;;;;2.47;0.52;;;;;;;13.89;90.00;99822.88;5063546;28;20063;-77
2022/01/11 09:34:50;;;;;;;4.28;1.80;;;;;;;13.82;90.50;99823.84;5064587;28;20378;-77
2022/01/11 09:37:27;;;;;;;9.15;4.28;;;;;;;13.85;90.83;99808.75;5064225;28;20551;-75
2022/01/11 09:39:56;;;;;;;14.07;8.50;;;;;;;13.78;91.02;99823.03;5067521;28;20045;-78
2022/01/11 09:42:27;;;;;;;11.57;5.80;;;;;;;13.69;90.79;99824.91;5067987;28;20090;-76
2022/01/11 09:44:58;;;;;;;9.55;6.07;;;;;;;13.62;90.62;99820.56;5066358;28;20056;-77
2022/01/11 09:47:28;;;;;;;3.65;1.30;;;;;;;13.58;90.40;99827.69;5048284;28;20049;-76
2022/01/11 09:49:56;;;;;;;11.38;5.85;;;;;;;13.54;89.58;99823.31;5053456;28;20045;-77
2022/01/11 09:52:27;;;;;;;8.40;4.00;;;;;;;13.65;89.38;99812.59;5067746;28;20055;-77
2022/01/11 09:54:56;;;;;;;24.90;14.10;;;;;;;13.59;89.24;99810.00;5067693;28;20036;-78
2022/01/11 09:57:26;;;;;;;41.67;25.52;;;;;;;13.62;89.57;99807.31;5067591;28;20044;-79
2022/01/11 10:00:12;;;;;;;38.42;22.98;;;;;;;13.67;89.70;99801.03;5073493;28;20053;-80
2022/01/11 10:02:50;;;;;;;27.92;15.95;;;;;;;13.76;89.83;99782.38;5065819;28;20124;-77
2022/01/11 10:05:40;;;;;;;34.50;23.70;;;;;;;13.89;89.90;99789.28;5055642;28;20638;-78
2022/01/11 10:08:34;;;;;;;25.38;16.48;;;;;;;14.04;89.91;99793.50;5067856;28;20049;-78
2022/01/11 10:11:02;;;;;;;18.08;9.15;;;;;;;14.26;89.82;99783.41;5066611;28;20094;-82
2022/01/11 10:13:32;;;;;;;14.57;3.08;;;;;;;14.39;90.07;99790.31;5069942;28;20074;-81
2022/01/11 10:16:19;;;;;;;4.55;1.88;;;;;;;14.45;90.16;99794.66;5062609;28;20129;-81
2022/01/11 10:18:47;;;;;;;6.28;1.55;;;;;;;14.43;90.00;99768.16;5043360;28;20056;-77
2022/01/11 10:21:36;;;;;;;6.85;3.40;;;;;;;14.49;90.25;99769.81;5028105;28;20049;-77
2022/01/11 10:24:42;;;;;;;13.82;7.93;;;;;;;14.44;90.44;99777.00;5046812;28;20048;-76
2022/01/11 10:27:24;;;;;;;24.35;14.95;;;;;;;14.34;90.18;99787.72;5030886;28;20129;-78
2022/01/11 10:29:53;;;;;;;15.82;6.60;;;;;;;14.35;89.91;99793.91;5047080;28;20040;-77
2022/01/11 10:32:30;;;;;;;19.45;8.10;;;;;;;14.52;89.73;99806.94;5044893;28;20068;-78
2022/01/11 10:35:04;;;;;;;13.18;7.32;;;;;;;14.57;89.53;99799.81;5058184;28;20045;-77
2022/01/11 10:37:35;;;;;;;12.73;4.57;;;;;;;14.43;89.79;99797.38;5052252;28;20049;-77
2022/01/11 10:40:14;;;;;;;8.05;2.97;;;;;;;14.35;90.49;99793.91;5061167;28;20041;-77
2022/01/11 10:42:57;;;;;;;5.35;2.15;;;;;;;14.17;90.54;99781.81;5045836;28;20051;-77
2022/01/11 10:45:29;;;;;;;6.63;2.30;;;;;;;13.91;90.38;99797.22;5060814;28;20060;-74
2022/01/11 10:47:59;;;;;;;5.22;1.60;;;;;;;13.72;90.11;99799.19;5053376;28;20150;-74
2022/01/11 10:50:30;;;;;;;11.77;2.17;;;;;;;13.55;90.20;99788.81;5034549;28;20050;-75
2022/01/11 10:53:02;;;;;;;27.70;19.02;;;;;;;13.29;90.03;99820.06;5043852;28;20060;-75
2022/01/11 10:55:35;;;;;;;17.58;10.10;;;;;;;12.70;89.16;99813.53;5044046;28;20048;-76
2022/01/11 10:58:05;;;;;;;26.60;14.88;;;;;;;12.39;89.17;99835.84;5052948;28;20049;-76
2022/01/11 11:00:35;;;;;;;65.28;44.10;;;;;;;12.41;89.87;99827.84;5044323;28;20528;-77
2022/01/11 11:03:07;;;;;;;32.80;18.48;;;;;;;12.71;90.75;99827.66;5067575;28;20049;-77
2022/01/11 11:05:38;;;;;;;27.15;15.15;;;;;;;13.01;91.46;99818.53;5053202;28;20034;-77
2022/01/11 11:08:17;;;;;;;30.30;19.95;;;;;;;13.24;92.01;99819.22;5050502;28;20462;-77
2022/01/11 11:11:00;;;;;;;17.33;8.50;;;;;;;13.44;92.15;99826.97;5067293;28;20042;-77
2022/01/11 11:13:30;;;;;;;13.10;2.60;;;;;;;13.51;92.26;99829.53;5052464;28;20058;-77
2022/01/11 11:16:01;;;;;;;8.50;1.92;;;;;;;13.56;92.11;99842.72;5046461;28;20049;-77
2022/01/11 11:18:37;;;;;;;7.82;2.13;;;;;;;13.68;91.95;99847.00;5065451;28;20056;-78
2022/01/11 11:21:18;;;;;;;7.68;2.47;;;;;;;13.79;91.95;99832.72;5067493;28;20051;-79
2022/01/11 11:23:48;;;;;;;6.65;2.70;;;;;;;13.86;91.83;99836.16;5062435;28;20111;-79
2022/01/11 11:26:19;;;;;;;8.35;2.40;;;;;;;13.78;90.97;99840.72;5067933;28;20115;-81
2022/01/11 11:28:47;;;;;;;6.32;2.13;;;;;;;13.66;90.33;99841.72;5069074;28;20556;-81
2022/01/11 11:31:15;;;;;;;4.05;1.77;;;;;;;13.53;89.85;99856.00;5068450;28;20058;-82
2022/01/11 11:33:44;;;;;;;2.08;1.17;;;;;;;13.35;88.95;99853.56;5068603;28;20119;-82
2022/01/11 11:36:15;;;;;;;11.07;5.45;;;;;;;13.21;88.56;99845.75;5071945;28;20119;-81
2022/01/11 11:38:48;;;;;;;13.82;8.23;;;;;;;13.16;88.42;99860.81;5074493;28;20102;-81
2022/01/11 11:41:18;;;;;;;12.10;6.87;;;;;;;13.20;88.49;99875.78;5056082;28;20048;-81
2022/01/11 11:44:09;;;;;;;8.93;5.05;;;;;;;13.17;88.28;99867.88;5073251;28;20769;-81
2022/01/11 11:46:48;;;;;;;11.52;4.88;;;;;;;13.21;88.22;99880.19;5073530;28;20044;-76
2022/01/11 11:49:17;;;;;;;10.63;3.70;;;;;;;13.20;88.00;99889.03;5072112;28;20050;-81